sensor_id;sensor_type;location;lat;lon;timestamp;pressure;altitude;pressure_sealevel;temperature;humidity
50282;BME280;36176;51.506;10.272;2023-04-23T00:00:39;98593.38;;;14.36;70.17
50282;BME280;36176;51.506;10.272;2023-04-23T00:03:08;98596.75;;;14.38;70.61
50282;BME280;36176;51.506;10.272;2023-04-23T00:05:36;98592.06;;;14.42;70.67
50282;BME280;36176;51.506;10.272;2023-04-23T00:08:04;98586.84;;;14.40;70.55
50282;BME280;36176;51.506;10.272;2023-04-23T00:10:31;98593.66;;;14.44;70.11
50282;BME280;36176;51.506;10.272;2023-04-23T00:12:59;98586.50;;;14.45;71.11
50282;BME280;36176;51.506;10.272;2023-04-23T00:15:26;98592.19;;;14.52;70.08
50282;BME280;36176;51.506;10.272;2023-04-23T00:17:53;98585.72;;;14.56;70.25
50282;BME280;36176;51.506;10.272;2023-04-23T00:20:20;98591.63;;;14.59;70.00
50282;BME280;36176;51.506;10.272;2023-04-23T00:22:48;98590.91;;;14.57;70.25
50282;BME280;36176;51.506;10.272;2023-04-23T00:25:15;98583.03;;;14.56;70.17
50282;BME280;36176;51.506;10.272;2023-04-23T00:27:42;98583.88;;;14.56;70.22
50282;BME280;36176;51.506;10.272;2023-04-23T00:30:09;98584.72;;;14.57;70.00
50282;BME280;36176;51.506;10.272;2023-04-23T00:32:36;98587.03;;;14.61;70.36
50282;BME280;36176;51.506;10.272;2023-04-23T00:35:04;98583.19;;;14.65;69.75
50282;BME280;36176;51.506;10.272;2023-04-23T00:37:31;98583.19;;;14.65;69.73
50282;BME280;36176;51.506;10.272;2023-04-23T00:39:58;98580.63;;;14.64;70.41
50282;BME280;36176;51.506;10.272;2023-04-23T00:42:25;98580.88;;;14.61;70.71
50282;BME280;36176;51.506;10.272;2023-04-23T00:44:54;98582.06;;;14.57;71.12
50282;BME280;36176;51.506;10.272;2023-04-23T00:47:21;98576.06;;;14.53;72.25
50282;BME280;36176;51.506;10.272;2023-04-23T00:49:49;98573.78;;;14.49;72.45
50282;BME280;36176;51.506;10.272;2023-04-23T00:52:16;98579.09;;;14.37;73.60
50282;BME280;36176;51.506;10.272;2023-04-23T00:54:43;98578.72;;;14.31;74.41
50282;BME280;36176;51.506;10.272;2023-04-23T00:57:10;98579.06;;;14.26;75.17
50282;BME280;36176;51.506;10.272;2023-04-23T00:59:37;98575.78;;;14.22;75.97
50282;BME280;36176;51.506;10.272;2023-04-23T01:02:05;98567.91;;;14.21;76.81
50282;BME280;36176;51.506;10.272;2023-04-23T01:04:34;98570.47;;;14.22;76.29
50282;BME280;36176;51.506;10.272;2023-04-23T01:07:02;98570.56;;;14.21;76.67
50282;BME280;36176;51.506;10.272;2023-04-23T01:09:29;98568.66;;;14.23;76.67
50282;BME280;36176;51.506;10.272;2023-04-23T01:11:58;98570.47;;;14.22;77.10
50282;BME280;36176;51.506;10.272;2023-04-23T01:14:28;98576.41;;;14.26;76.40
50282;BME280;36176;51.506;10.272;2023-04-23T01:16:55;98573.00;;;14.24;77.04
50282;BME280;36176;51.506;10.272;2023-04-23T01:19:22;98575.44;;;14.27;77.15
50282;BME280;36176;51.506;10.272;2023-04-23T01:21:49;98576.63;;;14.23;77.77
50282;BME280;36176;51.506;10.272;2023-04-23T01:24:17;98578.31;;;14.24;77.70
50282;BME280;36176;51.506;10.272;2023-04-23T01:26:44;98575.16;;;14.19;78.83
50282;BME280;36176;51.506;10.272;2023-04-23T01:29:11;98577.09;;;14.17;78.30
50282;BME280;36176;51.506;10.272;2023-04-23T01:31:39;98571.16;;;14.13;78.80
50282;BME280;36176;51.506;10.272;2023-04-23T01:34:06;98576.50;;;14.13;78.94
50282;BME280;36176;51.506;10.272;2023-04-23T01:36:34;98574.78;;;14.12;79.22
50282;BME280;36176;51.506;10.272;2023-04-23T01:39:01;98568.59;;;14.12;78.95
50282;BME280;36176;51.506;10.272;2023-04-23T01:41:29;98570.53;;;14.10;79.24
50282;BME280;36176;51.506;10.272;2023-04-23T01:43:59;98575.84;;;14.10;79.48
50282;BME280;36176;51.506;10.272;2023-04-23T01:46:27;98567.13;;;14.08;79.59
50282;BME280;36176;51.506;10.272;2023-04-23T01:48:54;98571.63;;;14.07;79.86
50282;BME280;36176;51.506;10.272;2023-04-23T01:51:21;98570.03;;;14.04;80.50
50282;BME280;36176;51.506;10.272;2023-04-23T01:53:49;98568.47;;;14.02;80.27
50282;BME280;36176;51.506;10.272;2023-04-23T01:56:18;98567.63;;;14.01;80.66
50282;BME280;36176;51.506;10.272;2023-04-23T01:58:45;98565.19;;;13.98;81.46
50282;BME280;36176;51.506;10.272;2023-04-23T02:01:12;98569.53;;;13.99;80.79
50282;BME280;36176;51.506;10.272;2023-04-23T02:03:39;98566.78;;;14.01;80.70
50282;BME280;36176;51.506;10.272;2023-04-23T02:06:07;98572.19;;;13.99;80.96
50282;BME280;36176;51.506;10.272;2023-04-23T02:08:34;98574.13;;;13.97;81.52
50282;BME280;36176;51.506;10.272;2023-04-23T02:11:01;98570.72;;;13.95;82.23
50282;BME280;36176;51.506;10.272;2023-04-23T02:13:28;98573.03;;;13.89;83.20
50282;BME280;36176;51.506;10.272;2023-04-23T02:15:55;98571.41;;;13.86;83.34
50282;BME280;36176;51.506;10.272;2023-04-23T02:18:22;98573.47;;;13.82;83.93
50282;BME280;36176;51.506;10.272;2023-04-23T02:20:49;98570.91;;;13.81;83.53
50282;BME280;36176;51.506;10.272;2023-04-23T02:23:16;98572.00;;;13.78;84.21
50282;BME280;36176;51.506;10.272;2023-04-23T02:25:43;98576.56;;;13.76;84.21
50282;BME280;36176;51.506;10.272;2023-04-23T02:28:10;98579.72;;;13.70;84.84
50282;BME280;36176;51.506;10.272;2023-04-23T02:30:39;98572.06;;;13.66;85.43
50282;BME280;36176;51.506;10.272;2023-04-23T02:33:11;98573.75;;;13.67;84.88
50282;BME280;36176;51.506;10.272;2023-04-23T02:35:38;98575.69;;;13.65;85.28
50282;BME280;36176;51.506;10.272;2023-04-23T02:38:05;98576.66;;;13.64;85.58
50282;BME280;36176;51.506;10.272;2023-04-23T02:40:32;98575.16;;;13.59;87.07
50282;BME280;36176;51.506;10.272;2023-04-23T02:42:59;98577.09;;;13.57;87.22
50282;BME280;36176;51.506;10.272;2023-04-23T02:45:26;98578.06;;;13.56;88.08
50282;BME280;36176;51.506;10.272;2023-04-23T02:47:53;98577.56;;;13.51;88.33
50282;BME280;36176;51.506;10.272;2023-04-23T02:50:20;98583.56;;;13.42;89.67
50282;BME280;36176;51.506;10.272;2023-04-23T02:52:47;98582.81;;;13.40;90.14
50282;BME280;36176;51.506;10.272;2023-04-23T02:55:15;98584.44;;;13.30;91.51
50282;BME280;36176;51.506;10.272;2023-04-23T02:57:42;98581.97;;;13.27;91.42
50282;BME280;36176;51.506;10.272;2023-04-23T03:00:10;98581.97;;;13.27;91.33
50282;BME280;36176;51.506;10.272;2023-04-23T03:02:38;98584.75;;;13.25;92.18
50282;BME280;36176;51.506;10.272;2023-04-23T03:05:06;98585.06;;;13.20;92.81
50282;BME280;36176;51.506;10.272;2023-04-23T03:07:33;98575.00;;;13.13;93.84
50282;BME280;36176;51.506;10.272;2023-04-23T03:10:00;98581.72;;;13.06;94.26
50282;BME280;36176;51.506;10.272;2023-04-23T03:12:27;98587.34;;;13.01;94.97
50282;BME280;36176;51.506;10.272;2023-04-23T03:14:54;98584.94;;;12.98;95.53
50282;BME280;36176;51.506;10.272;2023-04-23T03:17:21;98586.84;;;12.96;96.08
50282;BME280;36176;51.506;10.272;2023-04-23T03:19:48;98583.34;;;12.95;96.27
50282;BME280;36176;51.506;10.272;2023-04-23T03:22:15;98586.09;;;12.94;96.58
50282;BME280;36176;51.506;10.272;2023-04-23T03:24:41;98581.63;;;12.94;96.46
50282;BME280;36176;51.506;10.272;2023-04-23T03:27:09;98590.66;;;12.92;96.96
50282;BME280;36176;51.506;10.272;2023-04-23T03:29:36;98582.47;;;12.95;96.50
50282;BME280;36176;51.506;10.272;2023-04-23T03:32:03;98587.78;;;12.95;96.91
50282;BME280;36176;51.506;10.272;2023-04-23T03:34:30;98587.91;;;12.93;97.01
50282;BME280;36176;51.506;10.272;2023-04-23T03:36:57;98587.78;;;12.95;96.79
50282;BME280;36176;51.506;10.272;2023-04-23T03:39:24;98586.94;;;12.94;96.83
50282;BME280;36176;51.506;10.272;2023-04-23T03:41:51;98596.63;;;12.95;96.45
50282;BME280;36176;51.506;10.272;2023-04-23T03:44:18;98590.44;;;12.95;96.79
50282;BME280;36176;51.506;10.272;2023-04-23T03:46:45;98588.31;;;12.87;97.40
50282;BME280;36176;51.506;10.272;2023-04-23T03:49:12;98588.22;;;12.89;97.23
50282;BME280;36176;51.506;10.272;2023-04-23T03:51:39;98593.66;;;12.87;97.34
50282;BME280;36176;51.506;10.272;2023-04-23T03:54:06;98589.28;;;12.86;97.54
50282;BME280;36176;51.506;10.272;2023-04-23T03:56:33;98591.22;;;12.84;98.04
50282;BME280;36176;51.506;10.272;2023-04-23T03:59:00;98593.97;;;12.83;98.69
50282;BME280;36176;51.506;10.272;2023-04-23T04:01:27;98594.09;;;12.81;99.01
50282;BME280;36176;51.506;10.272;2023-04-23T04:03:55;98615.88;;;12.73;100.00
50282;BME280;36176;51.506;10.272;2023-04-23T04:06:22;98621.72;;;12.66;100.00
50282;BME280;36176;51.506;10.272;2023-04-23T04:08:49;98627.03;;;12.53;98.68
50282;BME280;36176;51.506;10.272;2023-04-23T04:11:16;98628.06;;;12.38;97.34
50282;BME280;36176;51.506;10.272;2023-04-23T04:13:43;98635.63;;;12.31;96.64
50282;BME280;36176;51.506;10.272;2023-04-23T04:16:10;98641.78;;;12.19;97.98
50282;BME280;36176;51.506;10.272;2023-04-23T04:18:37;98641.31;;;12.12;97.60
50282;BME280;36176;51.506;10.272;2023-04-23T04:21:05;98649.13;;;12.01;98.25
50282;BME280;36176;51.506;10.272;2023-04-23T04:23:32;98647.38;;;11.87;99.29
50282;BME280;36176;51.506;10.272;2023-04-23T04:25:59;98652.88;;;11.84;98.68
50282;BME280;36176;51.506;10.272;2023-04-23T04:28:26;98645.75;;;11.84;98.33
50282;BME280;36176;51.506;10.272;2023-04-23T04:30:54;98658.28;;;11.82;99.01
50282;BME280;36176;51.506;10.272;2023-04-23T04:33:23;98667.41;;;11.78;99.19
50282;BME280;36176;51.506;10.272;2023-04-23T04:35:51;98670.44;;;11.72;99.27
50282;BME280;36176;51.506;10.272;2023-04-23T04:38:18;98671.41;;;11.71;100.00
50282;BME280;36176;51.506;10.272;2023-04-23T04:40:45;98680.97;;;11.74;99.15
50282;BME280;36176;51.506;10.272;2023-04-23T04:43:14;98675.97;;;11.69;100.00
50282;BME280;36176;51.506;10.272;2023-04-23T04:45:42;98682.94;;;11.70;100.00
50282;BME280;36176;51.506;10.272;2023-04-23T04:48:10;98679.66;;;11.66;100.00
50282;BME280;36176;51.506;10.272;2023-04-23T04:50:37;98681.56;;;11.64;100.00
50282;BME280;36176;51.506;10.272;2023-04-23T04:53:04;98687.63;;;11.66;100.00
50282;BME280;36176;51.506;10.272;2023-04-23T04:55:31;98686.00;;;11.64;100.00
50282;BME280;36176;51.506;10.272;2023-04-23T04:57:58;98687.34;;;11.57;100.00
50282;BME280;36176;51.506;10.272;2023-04-23T05:00:27;98690.00;;;11.57;100.00
50282;BME280;36176;51.506;10.272;2023-04-23T05:02:58;98701.00;;;11.50;100.00
50282;BME280;36176;51.506;10.272;2023-04-23T05:05:26;98696.53;;;11.51;99.73
50282;BME280;36176;51.506;10.272;2023-04-23T05:07:53;98705.16;;;11.55;99.96
50282;BME280;36176;51.506;10.272;2023-04-23T05:10:21;98702.53;;;11.55;99.51
50282;BME280;36176;51.506;10.272;2023-04-23T05:12:47;98695.88;;;11.62;99.20
50282;BME280;36176;51.506;10.272;2023-04-23T05:15:14;98700.88;;;11.66;98.43
50282;BME280;36176;51.506;10.272;2023-04-23T05:17:42;98693.28;;;11.75;98.33
50282;BME280;36176;51.506;10.272;2023-04-23T05:20:10;98701.91;;;11.78;98.34
50282;BME280;36176;51.506;10.272;2023-04-23T05:22:38;98699.97;;;11.80;98.50
50282;BME280;36176;51.506;10.272;2023-04-23T05:25:06;98713.38;;;11.79;98.57
50282;BME280;36176;51.506;10.272;2023-04-23T05:27:34;98708.81;;;11.81;98.75
50282;BME280;36176;51.506;10.272;2023-04-23T05:30:02;98708.44;;;11.87;98.36
50282;BME280;36176;51.506;10.272;2023-04-23T05:32:30;98707.56;;;11.86;99.03
50282;BME280;36176;51.506;10.272;2023-04-23T05:34:57;98705.78;;;11.87;99.42
50282;BME280;36176;51.506;10.272;2023-04-23T05:37:25;98702.75;;;11.93;98.82
50282;BME280;36176;51.506;10.272;2023-04-23T05:39:52;98705.66;;;12.03;98.44
50282;BME280;36176;51.506;10.272;2023-04-23T05:42:20;98697.38;;;12.07;98.01
50282;BME280;36176;51.506;10.272;2023-04-23T05:44:47;98697.94;;;12.12;98.33
50282;BME280;36176;51.506;10.272;2023-04-23T05:47:14;98708.16;;;12.19;97.53
50282;BME280;36176;51.506;10.272;2023-04-23T05:49:41;98712.50;;;12.20;96.85
50282;BME280;36176;51.506;10.272;2023-04-23T05:52:08;98711.84;;;12.16;97.36
50282;BME280;36176;51.506;10.272;2023-04-23T05:54:35;98718.88;;;12.17;97.75
50282;BME280;36176;51.506;10.272;2023-04-23T05:57:02;98719.72;;;12.18;97.54
50282;BME280;36176;51.506;10.272;2023-04-23T05:59:30;98723.34;;;12.17;98.35
50282;BME280;36176;51.506;10.272;2023-04-23T06:01:58;98713.47;;;12.19;98.09
50282;BME280;36176;51.506;10.272;2023-04-23T06:04:25;98717.81;;;12.20;98.40
50282;BME280;36176;51.506;10.272;2023-04-23T06:06:53;98711.66;;;12.19;98.56
50282;BME280;36176;51.506;10.272;2023-04-23T06:09:20;98726.53;;;12.22;98.40
50282;BME280;36176;51.506;10.272;2023-04-23T06:11:47;98724.72;;;12.22;98.68
50282;BME280;36176;51.506;10.272;2023-04-23T06:14:16;98729.84;;;12.25;98.18
50282;BME280;36176;51.506;10.272;2023-04-23T06:16:43;98724.81;;;12.21;98.36
50282;BME280;36176;51.506;10.272;2023-04-23T06:19:10;98721.22;;;12.22;97.90
50282;BME280;36176;51.506;10.272;2023-04-23T06:21:37;98711.16;;;12.27;97.70
50282;BME280;36176;51.506;10.272;2023-04-23T06:24:05;98711.59;;;12.33;97.67
50282;BME280;36176;51.506;10.272;2023-04-23T06:26:33;98713.38;;;12.33;97.54
50282;BME280;36176;51.506;10.272;2023-04-23T06:29:00;98720.19;;;12.37;98.26
50282;BME280;36176;51.506;10.272;2023-04-23T06:31:27;98720.56;;;12.45;97.84
50282;BME280;36176;51.506;10.272;2023-04-23T06:33:54;98726.28;;;12.52;97.83
50282;BME280;36176;51.506;10.272;2023-04-23T06:36:22;98715.25;;;12.58;96.05
50282;BME280;36176;51.506;10.272;2023-04-23T06:38:49;98710.41;;;12.65;96.26
50282;BME280;36176;51.506;10.272;2023-04-23T06:41:16;98712.13;;;12.79;95.47
50282;BME280;36176;51.506;10.272;2023-04-23T06:43:43;98721.91;;;12.91;95.51
50282;BME280;36176;51.506;10.272;2023-04-23T06:46:11;98726.59;;;13.00;95.70
50282;BME280;36176;51.506;10.272;2023-04-23T06:48:38;98728.72;;;13.08;95.37
50282;BME280;36176;51.506;10.272;2023-04-23T06:51:05;98722.88;;;13.15;94.41
50282;BME280;36176;51.506;10.272;2023-04-23T06:53:32;98727.56;;;13.37;93.86
50282;BME280;36176;51.506;10.272;2023-04-23T06:55:59;98718.25;;;14.06;92.16
50282;BME280;36176;51.506;10.272;2023-04-23T06:58:26;98716.22;;;15.38;88.75
50282;BME280;36176;51.506;10.272;2023-04-23T07:00:57;98716.59;;;16.86;84.27
50282;BME280;36176;51.506;10.272;2023-04-23T07:03:26;98712.78;;;17.71;77.09
50282;BME280;36176;51.506;10.272;2023-04-23T07:05:53;98712.66;;;18.52;70.49
50282;BME280;36176;51.506;10.272;2023-04-23T07:08:20;98704.41;;;19.59;71.14
50282;BME280;36176;51.506;10.272;2023-04-23T07:10:48;98699.34;;;20.83;65.55
50282;BME280;36176;51.506;10.272;2023-04-23T07:13:14;98709.88;;;21.47;58.58
50282;BME280;36176;51.506;10.272;2023-04-23T07:15:41;98705.13;;;22.17;55.90
50282;BME280;36176;51.506;10.272;2023-04-23T07:18:09;98710.75;;;22.48;53.14
50282;BME280;36176;51.506;10.272;2023-04-23T07:20:36;98704.88;;;23.02;51.53
50282;BME280;36176;51.506;10.272;2023-04-23T07:23:03;98716.97;;;23.47;52.46
50282;BME280;36176;51.506;10.272;2023-04-23T07:25:30;98719.63;;;23.55;48.83
50282;BME280;36176;51.506;10.272;2023-04-23T07:27:57;98717.41;;;23.75;47.94
50282;BME280;36176;51.506;10.272;2023-04-23T07:30:25;98711.97;;;24.15;44.39
50282;BME280;36176;51.506;10.272;2023-04-23T07:32:52;98711.81;;;24.48;45.93
50282;BME280;36176;51.506;10.272;2023-04-23T07:35:19;98709.38;;;24.76;45.42
50282;BME280;36176;51.506;10.272;2023-04-23T07:37:46;98724.56;;;25.38;44.73
50282;BME280;36176;51.506;10.272;2023-04-23T07:40:13;98715.44;;;25.54;43.53
50282;BME280;36176;51.506;10.272;2023-04-23T07:42:40;98715.91;;;24.67;42.50
50282;BME280;36176;51.506;10.272;2023-04-23T07:45:07;98713.59;;;23.93;43.13
50282;BME280;36176;51.506;10.272;2023-04-23T07:47:34;98717.84;;;22.66;45.96
50282;BME280;36176;51.506;10.272;2023-04-23T07:50:01;98706.44;;;22.13;45.81
50282;BME280;36176;51.506;10.272;2023-04-23T07:52:28;98712.41;;;21.82;47.18
50282;BME280;36176;51.506;10.272;2023-04-23T07:54:55;98714.28;;;21.21;50.50
50282;BME280;36176;51.506;10.272;2023-04-23T07:57:22;98713.16;;;22.09;48.12
50282;BME280;36176;51.506;10.272;2023-04-23T07:59:48;98707.91;;;22.66;46.80
50282;BME280;36176;51.506;10.272;2023-04-23T08:02:15;98710.97;;;23.76;43.28
50282;BME280;36176;51.506;10.272;2023-04-23T08:04:44;98711.91;;;22.29;43.72
50282;BME280;36176;51.506;10.272;2023-04-23T08:07:11;98710.53;;;21.75;43.54
50282;BME280;36176;51.506;10.272;2023-04-23T08:09:38;98700.78;;;22.24;46.43
50282;BME280;36176;51.506;10.272;2023-04-23T08:12:06;98703.16;;;23.90;44.14
50282;BME280;36176;51.506;10.272;2023-04-23T08:14:33;98702.59;;;24.57;40.24
50282;BME280;36176;51.506;10.272;2023-04-23T08:16:59;98695.91;;;25.05;37.89
50282;BME280;36176;51.506;10.272;2023-04-23T08:19:26;98685.91;;;24.68;38.46
50282;BME280;36176;51.506;10.272;2023-04-23T08:21:57;98676.91;;;24.22;39.29
50282;BME280;36176;51.506;10.272;2023-04-23T08:24:24;98678.41;;;24.93;39.71
50282;BME280;36176;51.506;10.272;2023-04-23T08:26:51;98673.72;;;25.55;36.66
50282;BME280;36176;51.506;10.272;2023-04-23T08:29:18;98670.44;;;26.25;36.27
50282;BME280;36176;51.506;10.272;2023-04-23T08:31:45;98673.63;;;26.72;34.53
50282;BME280;36176;51.506;10.272;2023-04-23T08:34:12;98671.44;;;27.39;34.00
50282;BME280;36176;51.506;10.272;2023-04-23T08:36:40;98679.53;;;27.32;32.61
50282;BME280;36176;51.506;10.272;2023-04-23T08:39:07;98676.91;;;27.17;31.35
50282;BME280;36176;51.506;10.272;2023-04-23T08:41:38;98679.66;;;26.89;32.34
50282;BME280;36176;51.506;10.272;2023-04-23T08:44:18;98672.84;;;27.28;31.57
50282;BME280;36176;51.506;10.272;2023-04-23T08:46:45;98678.91;;;27.02;30.55
50282;BME280;36176;51.506;10.272;2023-04-23T08:49:14;98686.75;;;27.18;31.33
50282;BME280;36176;51.506;10.272;2023-04-23T08:51:53;98681.22;;;27.05;29.59
50282;BME280;36176;51.506;10.272;2023-04-23T08:54:25;98675.25;;;27.16;30.61
50282;BME280;36176;51.506;10.272;2023-04-23T08:56:55;98687.91;;;27.30;30.10
50282;BME280;36176;51.506;10.272;2023-04-23T08:59:28;98692.28;;;27.60;30.36
50282;BME280;36176;51.506;10.272;2023-04-23T09:01:56;98679.94;;;27.29;27.83
50282;BME280;36176;51.506;10.272;2023-04-23T09:04:23;98683.66;;;27.49;29.36
50282;BME280;36176;51.506;10.272;2023-04-23T09:06:51;98671.91;;;27.84;28.90
50282;BME280;36176;51.506;10.272;2023-04-23T09:09:18;98668.25;;;27.28;28.69
50282;BME280;36176;51.506;10.272;2023-04-23T09:11:45;98672.75;;;26.93;29.90
50282;BME280;36176;51.506;10.272;2023-04-23T09:14:12;98669.75;;;27.09;30.54
50282;BME280;36176;51.506;10.272;2023-04-23T09:16:39;98668.84;;;27.24;29.13
50282;BME280;36176;51.506;10.272;2023-04-23T09:19:08;98657.44;;;26.42;29.80
50282;BME280;36176;51.506;10.272;2023-04-23T09:21:35;98660.50;;;26.76;30.22
50282;BME280;36176;51.506;10.272;2023-04-23T09:24:05;98660.38;;;26.62;30.13
50282;BME280;36176;51.506;10.272;2023-04-23T09:26:32;98660.22;;;26.27;29.90
50282;BME280;36176;51.506;10.272;2023-04-23T09:28:59;98657.91;;;26.24;31.53
50282;BME280;36176;51.506;10.272;2023-04-23T09:31:25;98651.69;;;26.52;31.12
50282;BME280;36176;51.506;10.272;2023-04-23T09:33:53;98636.56;;;26.43;29.06
50282;BME280;36176;51.506;10.272;2023-04-23T09:36:20;98642.63;;;26.45;31.11
50282;BME280;36176;51.506;10.272;2023-04-23T09:38:49;98636.19;;;26.67;30.14
50282;BME280;36176;51.506;10.272;2023-04-23T09:41:23;98638.91;;;26.67;30.54
50282;BME280;36176;51.506;10.272;2023-04-23T09:43:53;98643.22;;;26.62;31.56
50282;BME280;36176;51.506;10.272;2023-04-23T09:46:40;98648.28;;;26.22;32.37
50282;BME280;36176;51.506;10.272;2023-04-23T09:49:08;98647.59;;;26.56;30.28
50282;BME280;36176;51.506;10.272;2023-04-23T09:51:38;98638.50;;;26.06;32.40
50282;BME280;36176;51.506;10.272;2023-04-23T09:54:09;98643.00;;;25.84;32.19
50282;BME280;36176;51.506;10.272;2023-04-23T09:56:37;98638.38;;;25.48;31.71
50282;BME280;36176;51.506;10.272;2023-04-23T09:59:18;98630.41;;;25.17;33.34
50282;BME280;36176;51.506;10.272;2023-04-23T10:01:45;98622.56;;;25.52;33.75
50282;BME280;36176;51.506;10.272;2023-04-23T10:04:16;98628.28;;;25.42;33.39
50282;BME280;36176;51.506;10.272;2023-04-23T10:06:44;98632.53;;;24.92;32.51
50282;BME280;36176;51.506;10.272;2023-04-23T10:09:23;98630.72;;;24.69;31.87
50282;BME280;36176;51.506;10.272;2023-04-23T10:11:54;98637.41;;;23.81;35.37
50282;BME280;36176;51.506;10.272;2023-04-23T10:14:21;98632.31;;;23.86;37.67
50282;BME280;36176;51.506;10.272;2023-04-23T10:16:52;98636.06;;;23.38;37.58
50282;BME280;36176;51.506;10.272;2023-04-23T10:19:21;98640.69;;;23.12;37.06
50282;BME280;36176;51.506;10.272;2023-04-23T10:21:52;98633.09;;;23.16;36.16
50282;BME280;36176;51.506;10.272;2023-04-23T10:24:26;98632.06;;;23.17;36.24
50282;BME280;36176;51.506;10.272;2023-04-23T10:26:55;98624.84;;;22.85;37.63
50282;BME280;36176;51.506;10.272;2023-04-23T10:29:25;98633.13;;;22.91;35.39
50282;BME280;36176;51.506;10.272;2023-04-23T10:31:53;98624.72;;;22.54;36.03
50282;BME280;36176;51.506;10.272;2023-04-23T10:34:22;98621.47;;;22.75;38.70
50282;BME280;36176;51.506;10.272;2023-04-23T10:36:50;98619.44;;;22.93;36.38
50282;BME280;36176;51.506;10.272;2023-04-23T10:39:18;98627.53;;;22.93;38.54
50282;BME280;36176;51.506;10.272;2023-04-23T10:41:54;98636.16;;;22.80;39.11
50282;BME280;36176;51.506;10.272;2023-04-23T10:44:22;98624.34;;;22.89;37.29
50282;BME280;36176;51.506;10.272;2023-04-23T10:47:13;98620.81;;;22.64;38.61
50282;BME280;36176;51.506;10.272;2023-04-23T10:49:40;98621.34;;;22.68;38.28
50282;BME280;36176;51.506;10.272;2023-04-23T10:52:15;98612.41;;;22.67;38.24
50282;BME280;36176;51.506;10.272;2023-04-23T10:54:47;98613.91;;;22.29;38.75
50282;BME280;36176;51.506;10.272;2023-04-23T10:57:14;98621.31;;;22.60;38.34
50282;BME280;36176;51.506;10.272;2023-04-23T10:59:51;98607.94;;;21.84;36.86
50282;BME280;36176;51.506;10.272;2023-04-23T11:02:19;98617.28;;;21.21;38.51
50282;BME280;36176;51.506;10.272;2023-04-23T11:04:53;98606.78;;;21.44;40.70
50282;BME280;36176;51.506;10.272;2023-04-23T11:07:20;98615.53;;;21.89;39.23
50282;BME280;36176;51.506;10.272;2023-04-23T11:09:51;98617.16;;;21.65;38.45
50282;BME280;36176;51.506;10.272;2023-04-23T11:14:47;98620.00;;;21.30;39.97
50282;BME280;36176;51.506;10.272;2023-04-23T11:17:15;98617.78;;;21.17;41.96
50282;BME280;36176;51.506;10.272;2023-04-23T11:20:04;98613.69;;;20.78;41.37
50282;BME280;36176;51.506;10.272;2023-04-23T11:22:35;98610.91;;;20.70;42.28
50282;BME280;36176;51.506;10.272;2023-04-23T11:25:02;98612.03;;;20.59;41.17
50282;BME280;36176;51.506;10.272;2023-04-23T11:27:30;98607.19;;;20.27;42.32
50282;BME280;36176;51.506;10.272;2023-04-23T11:29:57;98606.59;;;20.15;41.51
50282;BME280;36176;51.506;10.272;2023-04-23T11:32:26;98599.44;;;19.88;42.57
50282;BME280;36176;51.506;10.272;2023-04-23T11:34:53;98608.47;;;19.69;41.85
50282;BME280;36176;51.506;10.272;2023-04-23T11:37:20;98596.63;;;19.34;41.82
50282;BME280;36176;51.506;10.272;2023-04-23T11:39:47;98600.06;;;18.99;42.92
50282;BME280;36176;51.506;10.272;2023-04-23T11:42:15;98602.63;;;18.71;43.97
50282;BME280;36176;51.506;10.272;2023-04-23T11:44:43;98599.44;;;18.58;44.70
50282;BME280;36176;51.506;10.272;2023-04-23T11:47:11;98606.81;;;18.46;45.03
50282;BME280;36176;51.506;10.272;2023-04-23T11:49:39;98602.56;;;18.44;45.59
50282;BME280;36176;51.506;10.272;2023-04-23T11:52:07;98599.19;;;18.42;45.76
50282;BME280;36176;51.506;10.272;2023-04-23T11:54:34;98604.97;;;18.27;48.26
50282;BME280;36176;51.506;10.272;2023-04-23T11:57:01;98586.59;;;18.52;52.54
50282;BME280;36176;51.506;10.272;2023-04-23T11:59:30;98588.03;;;19.59;50.51
50282;BME280;36176;51.506;10.272;2023-04-23T12:01:57;98579.75;;;20.86;50.64
50282;BME280;36176;51.506;10.272;2023-04-23T12:04:28;98572.50;;;21.71;44.92
50282;BME280;36176;51.506;10.272;2023-04-23T12:06:56;98573.69;;;21.60;42.22
50282;BME280;36176;51.506;10.272;2023-04-23T12:09:23;98567.81;;;21.90;43.49
50282;BME280;36176;51.506;10.272;2023-04-23T12:11:52;98574.13;;;22.39;42.58
50282;BME280;36176;51.506;10.272;2023-04-23T12:14:22;98572.34;;;23.04;41.86
50282;BME280;36176;51.506;10.272;2023-04-23T12:16:52;98572.28;;;23.20;37.63
50282;BME280;36176;51.506;10.272;2023-04-23T12:19:20;98555.03;;;23.21;36.36
50282;BME280;36176;51.506;10.272;2023-04-23T12:21:51;98547.94;;;22.72;37.52
50282;BME280;36176;51.506;10.272;2023-04-23T12:24:24;98541.28;;;22.83;37.54
50282;BME280;36176;51.506;10.272;2023-04-23T12:26:52;98544.94;;;22.26;36.23
50282;BME280;36176;51.506;10.272;2023-04-23T12:29:24;98536.44;;;21.64;36.84
50282;BME280;36176;51.506;10.272;2023-04-23T12:31:51;98543.94;;;20.93;38.35
50282;BME280;36176;51.506;10.272;2023-04-23T12:34:19;98540.53;;;20.39;39.29
50282;BME280;36176;51.506;10.272;2023-04-23T12:36:50;98543.09;;;20.23;39.77
50282;BME280;36176;51.506;10.272;2023-04-23T12:41:50;98525.03;;;20.33;40.65
50282;BME280;36176;51.506;10.272;2023-04-23T12:44:18;98534.31;;;20.38;40.70
50282;BME280;36176;51.506;10.272;2023-04-23T12:46:48;98520.28;;;20.27;44.21
50282;BME280;36176;51.506;10.272;2023-04-23T12:49:15;98527.34;;;20.54;41.29
50282;BME280;36176;51.506;10.272;2023-04-23T12:51:42;98525.66;;;20.53;41.74
50282;BME280;36176;51.506;10.272;2023-04-23T12:54:10;98514.22;;;20.51;40.23
50282;BME280;36176;51.506;10.272;2023-04-23T12:56:36;98508.69;;;20.78;41.14
50282;BME280;36176;51.506;10.272;2023-04-23T12:59:03;98509.75;;;20.94;39.18